Shark River Hills, New Jersey
Current Conditions -  °F | °C
As of 6:15 PM on Thursday 27 Nov 2014 (Local Time) from KBLM Reporting Station
Few Clouds Few Clouds  
Wind Chill: 30°   Ceiling: Unl
Heat Index: 34°   Visibility: 10mi
Dew Point: 25°   Wind: 5mph
Humidity: 70%   Direction: 290°WNW
Pressure: 30.04"   Gusts: NA
Location:  40.2205°N, 74.0818°W
Report Text: KBLM 272315Z AUTO 29004KT 10SM FEW036 01/M04 A3004 RMK AO1
Loading
Personal Weather Stations






























Interactive Weather Map New forecast layout! Learn more

10-Day Weather Forecast

Advertisements
Track Severe Weather on mobile